マプト の空港の天気 - METARとTAF

マプト国際空港 ( FQMA / MPM ) - モザンビーク マプト
飛行場実況気象(Metar)
観測時間07/20 14:00 CAT (07/20 12:00 UTC)
風向・風速東南東 7m/s
視程10km以上
天気現象
全天の8割程度の雲 雲底高度 610m
気温24℃
湿度61%
気圧1016hPa
METARFQMA 201200Z 11014KT 9999 BKN020TCU 24/16 Q1016 NOSIG
過去の天気等 Google飛行場航空写真 Wunderground天気予報

過去48時間のMETAR

飛行場予報(TAF)
発表時間: 7/20 12:00 CAT (7/20 10:00 UTC)
予報対象時間: 20日14時 CAT ~ 21日20時 CAT
風向・風速南東 6m/s
視程10km以上
全天の4割程度の雲 雲底高度 610m
20日21時 CAT ~ 20日23時 CAT に徐々に
風向・風速南南西 4m/s
21日2時 CAT ~ 21日4時 CAT に徐々に
全天の8割程度の雲 雲底高度 460m
TAF FQMA 201000Z 2012/2118 13012KT 9999 SCT020 TX25/2013Z TN16/2103Z
BECMG 2019/2021 21008KT
BECMG 2100/2102 BKN015